<?xml version="1.0" encoding="UTF-8" standalone="no" ?><gpx xmlns="http://www.topografix.com/GPX/1/1" xmlns:gpxx="http://www.garmin.com/xmlschemas/GpxExtensions/v3" xmlns:wptx1="http://www.garmin.com/xmlschemas/WaypointExtension/v1" xmlns:gpxtpx="http://www.garmin.com/xmlschemas/TrackPointExtension/v1" creator="Dakota 20" version="1.1" xmlns:xsi="http://www.w3.org/2001/XMLSchema-instance" xsi:schemaLocation="http://www.topografix.com/GPX/1/1 http://www.topografix.com/GPX/1/1/gpx.xsd http://www.garmin.com/xmlschemas/GpxExtensions/v3 http://www8.garmin.com/xmlschemas/GpxExtensionsv3.xsd http://www.garmin.com/xmlschemas/WaypointExtension/v1 http://www8.garmin.com/xmlschemas/WaypointExtensionv1.xsd http://www.garmin.com/xmlschemas/TrackPointExtension/v1 http://www.garmin.com/xmlschemas/TrackPointExtensionv1.xsd"><metadata><link href="http://www.garmin.com"><text>Garmin International</text></link><time>2014-08-27T14:23:25Z</time></metadata><trk><name>Current Track: 27 AUG 2014 10:10</name><extensions><gpxx:TrackExtension><gpxx:DisplayColor>Cyan</gpxx:DisplayColor></gpxx:TrackExtension></extensions><trkseg><trkpt lat="51.7218984291" lon="-2.2137262579"><ele>184.23</ele><time>2014-08-27T09:10:12Z</time></trkpt><trkpt lat="51.7218923941" lon="-2.2137238272"><ele>182.79</ele><time>2014-08-27T09:10:27Z</time></trkpt><trkpt lat="51.7218953278" lon="-2.2137381602"><ele>182.31</ele><time>2014-08-27T09:10:42Z</time></trkpt><trkpt lat="51.7218924779" lon="-2.2137418482"><ele>182.79</ele><time>2014-08-27T09:10:58Z</time></trkpt><trkpt lat="51.7218725290" lon="-2.2137444466"><ele>181.83</ele><time>2014-08-27T09:11:14Z</time></trkpt><trkpt lat="51.7218300328" lon="-2.2137033753"><ele>182.79</ele><time>2014-08-27T09:11:33Z</time></trkpt><trkpt lat="51.7218021210" lon="-2.2136954125"><ele>183.27</ele><time>2014-08-27T09:11:37Z</time></trkpt><trkpt lat="51.7217227444" lon="-2.2135284450"><ele>183.27</ele><time>2014-08-27T09:11:51Z</time></trkpt><trkpt lat="51.7217277735" lon="-2.2133385111"><ele>184.23</ele><time>2014-08-27T09:12:05Z</time></trkpt><trkpt lat="51.7217326351" lon="-2.2133105993"><ele>184.23</ele><time>2014-08-27T09:12:07Z</time></trkpt><trkpt lat="51.7217399273" lon="-2.2130939271"><ele>184.71</ele><time>2014-08-27T09:12:19Z</time></trkpt><trkpt lat="51.7217706889" lon="-2.2129111178"><ele>185.19</ele><time>2014-08-27T09:12:28Z</time></trkpt><trkpt lat="51.7217742093" lon="-2.2128491756"><ele>184.71</ele><time>2014-08-27T09:12:31Z</time></trkpt><trkpt lat="51.7218177952" lon="-2.2127646860"><ele>186.63</ele><time>2014-08-27T09:12:38Z</time></trkpt><trkpt lat="51.7218996864" lon="-2.2127330024"><ele>186.15</ele><time>2014-08-27T09:12:45Z</time></trkpt><trkpt lat="51.7220451124" lon="-2.2128186654"><ele>185.67</ele><time>2014-08-27T09:12:59Z</time></trkpt><trkpt lat="51.7222055420" lon="-2.2129521053"><ele>185.67</ele><time>2014-08-27T09:13:14Z</time></trkpt><trkpt lat="51.7222574260" lon="-2.2129967809"><ele>185.67</ele><time>2014-08-27T09:13:18Z</time></trkpt><trkpt lat="51.7222928815" lon="-2.2130229324"><ele>185.67</ele><time>2014-08-27T09:13:20Z</time></trkpt><trkpt lat="51.7224531434" lon="-2.2131696157"><ele>184.71</ele><time>2014-08-27T09:13:35Z</time></trkpt><trkpt lat="51.7225489486" lon="-2.2131876368"><ele>185.19</ele><time>2014-08-27T09:13:47Z</time></trkpt><trkpt lat="51.7226642836" lon="-2.2132894769"><ele>184.23</ele><time>2014-08-27T09:14:00Z</time></trkpt><trkpt lat="51.7227398884" lon="-2.2134038899"><ele>183.27</ele><time>2014-08-27T09:14:10Z</time></trkpt><trkpt lat="51.7228341009" lon="-2.2135057300"><ele>182.31</ele><time>2014-08-27T09:14:22Z</time></trkpt><trkpt lat="51.7228638567" lon="-2.2135439515"><ele>182.31</ele><time>2014-08-27T09:14:35Z</time></trkpt><trkpt lat="51.7229112145" lon="-2.2136541735"><ele>182.79</ele><time>2014-08-27T09:14:48Z</time></trkpt><trkpt lat="51.7230004817" lon="-2.2137717716"><ele>182.31</ele><time>2014-08-27T09:15:01Z</time></trkpt><trkpt lat="51.7230057623" lon="-2.2137802374"><ele>182.31</ele><time>2014-08-27T09:15:02Z</time></trkpt><trkpt lat="51.7230962869" lon="-2.2138853464"><ele>182.79</ele><time>2014-08-27T09:15:15Z</time></trkpt><trkpt lat="51.7232042458" lon="-2.2139599454"><ele>183.27</ele><time>2014-08-27T09:15:27Z</time></trkpt><trkpt lat="51.7233049963" lon="-2.2140430938"><ele>183.27</ele><time>2014-08-27T09:15:40Z</time></trkpt><trkpt lat="51.7233081814" lon="-2.2140804771"><ele>182.79</ele><time>2014-08-27T09:15:52Z</time></trkpt><trkpt lat="51.7233916651" lon="-2.2142073791"><ele>182.79</ele><time>2014-08-27T09:16:05Z</time></trkpt><trkpt lat="51.7234156374" lon="-2.2142560780"><ele>182.31</ele><time>2014-08-27T09:16:15Z</time></trkpt><trkpt lat="51.7235067487" lon="-2.2144688945"><ele>182.31</ele><time>2014-08-27T09:16:30Z</time></trkpt><trkpt lat="51.7235235125" lon="-2.2145406436"><ele>181.83</ele><time>2014-08-27T09:16:47Z</time></trkpt><trkpt lat="51.7235843651" lon="-2.2146814596"><ele>181.35</ele><time>2014-08-27T09:17:01Z</time></trkpt><trkpt lat="51.7236118577" lon="-2.2148181684"><ele>181.35</ele><time>2014-08-27T09:17:10Z</time></trkpt><trkpt lat="51.7236419488" lon="-2.2149102017"><ele>181.35</ele><time>2014-08-27T09:17:16Z</time></trkpt><trkpt lat="51.7236613110" lon="-2.2149795201"><ele>181.35</ele><time>2014-08-27T09:17:20Z</time></trkpt><trkpt lat="51.7236801703" lon="-2.2151782550"><ele>180.87</ele><time>2014-08-27T09:17:35Z</time></trkpt><trkpt lat="51.7236897256" lon="-2.2153965198"><ele>181.83</ele><time>2014-08-27T09:17:52Z</time></trkpt><trkpt lat="51.7236742191" lon="-2.2154374234"><ele>181.83</ele><time>2014-08-27T09:17:55Z</time></trkpt><trkpt lat="51.7236422841" lon="-2.2155616432"><ele>181.35</ele><time>2014-08-27T09:18:04Z</time></trkpt><trkpt lat="51.7236075830" lon="-2.2157443687"><ele>180.38</ele><time>2014-08-27T09:18:17Z</time></trkpt><trkpt lat="51.7236080021" lon="-2.2159204725"><ele>178.94</ele><time>2014-08-27T09:18:32Z</time></trkpt><trkpt lat="51.7236169707" lon="-2.2160212230"><ele>179.42</ele><time>2014-08-27T09:18:41Z</time></trkpt><trkpt lat="51.7236537673" lon="-2.2161371447"><ele>177.50</ele><time>2014-08-27T09:18:50Z</time></trkpt><trkpt lat="51.7236960959" lon="-2.2162013501"><ele>177.02</ele><time>2014-08-27T09:18:57Z</time></trkpt><trkpt lat="51.7238007858" lon="-2.2163673956"><ele>176.54</ele><time>2014-08-27T09:19:11Z</time></trkpt><trkpt lat="51.7238528375" lon="-2.2164212074"><ele>176.06</ele><time>2014-08-27T09:19:18Z</time></trkpt><trkpt lat="51.7238702718" lon="-2.2164472751"><ele>176.54</ele><time>2014-08-27T09:19:20Z</time></trkpt><trkpt lat="51.7240286898" lon="-2.2165735904"><ele>176.54</ele><time>2014-08-27T09:19:38Z</time></trkpt><trkpt lat="51.7240360659" lon="-2.2165797092"><ele>176.54</ele><time>2014-08-27T09:19:39Z</time></trkpt><trkpt lat="51.7241389956" lon="-2.2166670486"><ele>176.06</ele><time>2014-08-27T09:19:52Z</time></trkpt><trkpt lat="51.7241542507" lon="-2.2166925296"><ele>176.06</ele><time>2014-08-27T09:19:54Z</time></trkpt><trkpt lat="51.7241932265" lon="-2.2168402188"><ele>175.58</ele><time>2014-08-27T09:20:05Z</time></trkpt><trkpt lat="51.7242038716" lon="-2.2169478424"><ele>176.06</ele><time>2014-08-27T09:20:15Z</time></trkpt><trkpt lat="51.7242114991" lon="-2.2169774305"><ele>176.06</ele><time>2014-08-27T09:20:17Z</time></trkpt><trkpt lat="51.7242190428" lon="-2.2170148976"><ele>175.58</ele><time>2014-08-27T09:20:20Z</time></trkpt><trkpt lat="51.7242438532" lon="-2.2170980461"><ele>175.10</ele><time>2014-08-27T09:20:27Z</time></trkpt><trkpt lat="51.7242425121" lon="-2.2171417158"><ele>175.10</ele><time>2014-08-27T09:20:29Z</time></trkpt><trkpt lat="51.7242711782" lon="-2.2173235193"><ele>174.14</ele><time>2014-08-27T09:20:43Z</time></trkpt><trkpt lat="51.7242854275" lon="-2.2175048199"><ele>173.66</ele><time>2014-08-27T09:20:58Z</time></trkpt><trkpt lat="51.7242942285" lon="-2.2176324762"><ele>173.17</ele><time>2014-08-27T09:21:05Z</time></trkpt><trkpt lat="51.7242860980" lon="-2.2178070713"><ele>174.14</ele><time>2014-08-27T09:21:17Z</time></trkpt><trkpt lat="51.7242648080" lon="-2.2180066444"><ele>173.17</ele><time>2014-08-27T09:21:30Z</time></trkpt><trkpt lat="51.7242392432" lon="-2.2182111628"><ele>172.69</ele><time>2014-08-27T09:21:45Z</time></trkpt><trkpt lat="51.7242305260" lon="-2.2183659766"><ele>172.69</ele><time>2014-08-27T09:21:58Z</time></trkpt><trkpt lat="51.7242133431" lon="-2.2184700798"><ele>173.17</ele><time>2014-08-27T09:22:06Z</time></trkpt><trkpt lat="51.7242006864" lon="-2.2186352033"><ele>174.62</ele><time>2014-08-27T09:22:18Z</time></trkpt><trkpt lat="51.7241993453" lon="-2.2186619416"><ele>173.66</ele><time>2014-08-27T09:22:20Z</time></trkpt><trkpt lat="51.7241971660" lon="-2.2188607603"><ele>173.17</ele><time>2014-08-27T09:22:31Z</time></trkpt><trkpt lat="51.7242188752" lon="-2.2190049291"><ele>172.69</ele><time>2014-08-27T09:22:42Z</time></trkpt><trkpt lat="51.7242415063" lon="-2.2191024944"><ele>173.66</ele><time>2014-08-27T09:22:49Z</time></trkpt><trkpt lat="51.7243070528" lon="-2.2192620859"><ele>173.66</ele><time>2014-08-27T09:23:02Z</time></trkpt><trkpt lat="51.7243789695" lon="-2.2193307336"><ele>174.14</ele><time>2014-08-27T09:23:20Z</time></trkpt><trkpt lat="51.7244261596" lon="-2.2193645965"><ele>173.17</ele><time>2014-08-27T09:23:33Z</time></trkpt><trkpt lat="51.7244507186" lon="-2.2193813603"><ele>174.14</ele><time>2014-08-27T09:23:48Z</time></trkpt><trkpt lat="51.7245482840" lon="-2.2194583900"><ele>174.14</ele><time>2014-08-27T09:24:00Z</time></trkpt><trkpt lat="51.7246397305" lon="-2.2195637506"><ele>173.17</ele><time>2014-08-27T09:24:15Z</time></trkpt><trkpt lat="51.7246815562" lon="-2.2196914069"><ele>174.14</ele><time>2014-08-27T09:24:27Z</time></trkpt><trkpt lat="51.7247207835" lon="-2.2198553570"><ele>175.10</ele><time>2014-08-27T09:24:41Z</time></trkpt><trkpt lat="51.7247554846" lon="-2.2200097516"><ele>176.54</ele><time>2014-08-27T09:24:53Z</time></trkpt><trkpt lat="51.7247641180" lon="-2.2200400103"><ele>176.54</ele><time>2014-08-27T09:24:55Z</time></trkpt><trkpt lat="51.7247978970" lon="-2.2201250028"><ele>177.02</ele><time>2014-08-27T09:25:01Z</time></trkpt><trkpt lat="51.7248239648" lon="-2.2201939020"><ele>177.02</ele><time>2014-08-27T09:25:07Z</time></trkpt><trkpt lat="51.7249133158" lon="-2.2203240730"><ele>177.50</ele><time>2014-08-27T09:25:22Z</time></trkpt><trkpt lat="51.7249357793" lon="-2.2203429323"><ele>177.50</ele><time>2014-08-27T09:25:26Z</time></trkpt><trkpt lat="51.7250526231" lon="-2.2204117477"><ele>177.98</ele><time>2014-08-27T09:25:40Z</time></trkpt><trkpt lat="51.7251725681" lon="-2.2204723489"><ele>178.46</ele><time>2014-08-27T09:25:53Z</time></trkpt><trkpt lat="51.7252972908" lon="-2.2205664776"><ele>178.46</ele><time>2014-08-27T09:26:10Z</time></trkpt><trkpt lat="51.7253676988" lon="-2.2206450999"><ele>177.98</ele><time>2014-08-27T09:26:21Z</time></trkpt><trkpt lat="51.7255129572" lon="-2.2207424976"><ele>177.98</ele><time>2014-08-27T09:26:35Z</time></trkpt><trkpt lat="51.7256225925" lon="-2.2208211198"><ele>179.42</ele><time>2014-08-27T09:26:48Z</time></trkpt><trkpt lat="51.7257625703" lon="-2.2209143266"><ele>179.90</ele><time>2014-08-27T09:27:05Z</time></trkpt><trkpt lat="51.7258691881" lon="-2.2209907696"><ele>179.90</ele><time>2014-08-27T09:27:18Z</time></trkpt><trkpt lat="51.7258955073" lon="-2.2209972236"><ele>179.90</ele><time>2014-08-27T09:27:21Z</time></trkpt><trkpt lat="51.7259843554" lon="-2.2210344393"><ele>178.94</ele><time>2014-08-27T09:27:31Z</time></trkpt><trkpt lat="51.7260139436" lon="-2.2210420668"><ele>179.90</ele><time>2014-08-27T09:27:35Z</time></trkpt><trkpt lat="51.7261374928" lon="-2.2211155761"><ele>179.42</ele><time>2014-08-27T09:27:50Z</time></trkpt><trkpt lat="51.7262673285" lon="-2.2212092858"><ele>179.42</ele><time>2014-08-27T09:28:06Z</time></trkpt><trkpt lat="51.7263636366" lon="-2.2212534584"><ele>179.42</ele><time>2014-08-27T09:28:20Z</time></trkpt><trkpt lat="51.7263726052" lon="-2.2212604154"><ele>179.42</ele><time>2014-08-27T09:28:21Z</time></trkpt><trkpt lat="51.7263958231" lon="-2.2212698869"><ele>179.90</ele><time>2014-08-27T09:28:23Z</time></trkpt><trkpt lat="51.7264929693" lon="-2.2213031631"><ele>179.42</ele><time>2014-08-27T09:28:33Z</time></trkpt><trkpt lat="51.7265124153" lon="-2.2213108744"><ele>179.42</ele><time>2014-08-27T09:28:35Z</time></trkpt><trkpt lat="51.7266343720" lon="-2.2213478386"><ele>179.90</ele><time>2014-08-27T09:28:49Z</time></trkpt><trkpt lat="51.7266796343" lon="-2.2213560529"><ele>180.38</ele><time>2014-08-27T09:29:15Z</time></trkpt><trkpt lat="51.7266833223" lon="-2.2213538736"><ele>179.90</ele><time>2014-08-27T09:29:17Z</time></trkpt><trkpt lat="51.7267253157" lon="-2.2213727329"><ele>179.42</ele><time>2014-08-27T09:29:22Z</time></trkpt><trkpt lat="51.7268565763" lon="-2.2213992197"><ele>179.90</ele><time>2014-08-27T09:29:35Z</time></trkpt><trkpt lat="51.7268646229" lon="-2.2214030754"><ele>179.42</ele><time>2014-08-27T09:29:36Z</time></trkpt><trkpt lat="51.7269110586" lon="-2.2214228567"><ele>179.42</ele><time>2014-08-27T09:29:41Z</time></trkpt><trkpt lat="51.7269613501" lon="-2.2214200068"><ele>179.42</ele><time>2014-08-27T09:29:46Z</time></trkpt><trkpt lat="51.7269941233" lon="-2.2214260418"><ele>179.42</ele><time>2014-08-27T09:29:50Z</time></trkpt><trkpt lat="51.7271013279" lon="-2.2214506008"><ele>179.42</ele><time>2014-08-27T09:30:02Z</time></trkpt><trkpt lat="51.7272248771" lon="-2.2214834578"><ele>178.46</ele><time>2014-08-27T09:30:15Z</time></trkpt><trkpt lat="51.7273303214" lon="-2.2214845475"><ele>178.94</ele><time>2014-08-27T09:30:26Z</time></trkpt><trkpt lat="51.7274634261" lon="-2.2214916721"><ele>178.94</ele><time>2014-08-27T09:30:40Z</time></trkpt><trkpt lat="51.7276123725" lon="-2.2215076815"><ele>178.94</ele><time>2014-08-27T09:30:56Z</time></trkpt><trkpt lat="51.7276786733" lon="-2.2215109505"><ele>179.42</ele><time>2014-08-27T09:31:11Z</time></trkpt><trkpt lat="51.7276932579" lon="-2.2215593979"><ele>177.50</ele><time>2014-08-27T09:31:16Z</time></trkpt><trkpt lat="51.7277096026" lon="-2.2216731403"><ele>175.58</ele><time>2014-08-27T09:31:37Z</time></trkpt><trkpt lat="51.7277262826" lon="-2.2216821928"><ele>175.10</ele><time>2014-08-27T09:31:51Z</time></trkpt><trkpt lat="51.7277204152" lon="-2.2217122838"><ele>175.10</ele><time>2014-08-27T09:32:17Z</time></trkpt><trkpt lat="51.7277282942" lon="-2.2218504176"><ele>172.21</ele><time>2014-08-27T09:32:27Z</time></trkpt><trkpt lat="51.7277225107" lon="-2.2218518425"><ele>172.69</ele><time>2014-08-27T09:32:37Z</time></trkpt><trkpt lat="51.7277578823" lon="-2.2218196560"><ele>173.17</ele><time>2014-08-27T09:32:43Z</time></trkpt><trkpt lat="51.7277796753" lon="-2.2217930015"><ele>173.66</ele><time>2014-08-27T09:32:46Z</time></trkpt><trkpt lat="51.7278064135" lon="-2.2217365075"><ele>175.10</ele><time>2014-08-27T09:32:49Z</time></trkpt><trkpt lat="51.7278135382" lon="-2.2217290476"><ele>175.10</ele><time>2014-08-27T09:32:50Z</time></trkpt><trkpt lat="51.7279420327" lon="-2.2216239385"><ele>178.46</ele><time>2014-08-27T09:33:05Z</time></trkpt><trkpt lat="51.7279640771" lon="-2.2215868067"><ele>178.46</ele><time>2014-08-27T09:33:09Z</time></trkpt><trkpt lat="51.7279991973" lon="-2.2215383593"><ele>179.42</ele><time>2014-08-27T09:33:16Z</time></trkpt><trkpt lat="51.7280520871" lon="-2.2214671969"><ele>182.31</ele><time>2014-08-27T09:33:23Z</time></trkpt><trkpt lat="51.7280625645" lon="-2.2214644309"><ele>182.31</ele><time>2014-08-27T09:33:24Z</time></trkpt><trkpt lat="51.7280727904" lon="-2.2214638442"><ele>182.79</ele><time>2014-08-27T09:33:25Z</time></trkpt><trkpt lat="51.7282487266" lon="-2.2214669455"><ele>182.79</ele><time>2014-08-27T09:33:39Z</time></trkpt><trkpt lat="51.7283128481" lon="-2.2215066757"><ele>182.79</ele><time>2014-08-27T09:33:46Z</time></trkpt><trkpt lat="51.7283566855" lon="-2.2215442266"><ele>183.27</ele><time>2014-08-27T09:33:50Z</time></trkpt><trkpt lat="51.7285082303" lon="-2.2216369305"><ele>184.23</ele><time>2014-08-27T09:34:03Z</time></trkpt><trkpt lat="51.7285701726" lon="-2.2217505891"><ele>184.71</ele><time>2014-08-27T09:34:16Z</time></trkpt><trkpt lat="51.7285757046" lon="-2.2217531875"><ele>185.19</ele><time>2014-08-27T09:34:40Z</time></trkpt><trkpt lat="51.7286261637" lon="-2.2217741422"><ele>184.71</ele><time>2014-08-27T09:35:00Z</time></trkpt><trkpt lat="51.7286706716" lon="-2.2217863798"><ele>185.19</ele><time>2014-08-27T09:35:03Z</time></trkpt><trkpt lat="51.7287404928" lon="-2.2218230926"><ele>186.15</ele><time>2014-08-27T09:35:08Z</time></trkpt><trkpt lat="51.7289209552" lon="-2.2218769044"><ele>185.19</ele><time>2014-08-27T09:35:21Z</time></trkpt><trkpt lat="51.7289476097" lon="-2.2218855377"><ele>185.19</ele><time>2014-08-27T09:35:23Z</time></trkpt><trkpt lat="51.7289798800" lon="-2.2218960989"><ele>186.63</ele><time>2014-08-27T09:35:26Z</time></trkpt><trkpt lat="51.7290661298" lon="-2.2219288722"><ele>185.67</ele><time>2014-08-27T09:35:33Z</time></trkpt><trkpt lat="51.7291215342" lon="-2.2218966857"><ele>186.15</ele><time>2014-08-27T09:35:37Z</time></trkpt><trkpt lat="51.7292159982" lon="-2.2219214123"><ele>186.15</ele><time>2014-08-27T09:35:52Z</time></trkpt><trkpt lat="51.7292282358" lon="-2.2219256870"><ele>185.67</ele><time>2014-08-27T09:36:02Z</time></trkpt><trkpt lat="51.7292483523" lon="-2.2219213285"><ele>186.15</ele><time>2014-08-27T09:36:04Z</time></trkpt><trkpt lat="51.7292799521" lon="-2.2219061572"><ele>186.15</ele><time>2014-08-27T09:36:07Z</time></trkpt><trkpt lat="51.7294198461" lon="-2.2218851186"><ele>186.15</ele><time>2014-08-27T09:36:17Z</time></trkpt><trkpt lat="51.7294889968" lon="-2.2218893934"><ele>186.15</ele><time>2014-08-27T09:36:22Z</time></trkpt><trkpt lat="51.7296721414" lon="-2.2219188139"><ele>186.15</ele><time>2014-08-27T09:36:35Z</time></trkpt><trkpt lat="51.7297285516" lon="-2.2218728811"><ele>187.11</ele><time>2014-08-27T09:36:45Z</time></trkpt><trkpt lat="51.7297359277" lon="-2.2218703665"><ele>186.63</ele><time>2014-08-27T09:36:48Z</time></trkpt><trkpt lat="51.7297640070" lon="-2.2218654212"><ele>186.63</ele><time>2014-08-27T09:36:50Z</time></trkpt><trkpt lat="51.7297992110" lon="-2.2218723781"><ele>187.11</ele><time>2014-08-27T09:36:53Z</time></trkpt><trkpt lat="51.7298876401" lon="-2.2218543570"><ele>187.59</ele><time>2014-08-27T09:37:01Z</time></trkpt><trkpt lat="51.7299212515" lon="-2.2218554467"><ele>187.11</ele><time>2014-08-27T09:37:04Z</time></trkpt><trkpt lat="51.7300810944" lon="-2.2218451370"><ele>187.59</ele><time>2014-08-27T09:37:15Z</time></trkpt><trkpt lat="51.7301379237" lon="-2.2218688577"><ele>187.11</ele><time>2014-08-27T09:37:19Z</time></trkpt><trkpt lat="51.7302184738" lon="-2.2218794189"><ele>187.11</ele><time>2014-08-27T09:37:25Z</time></trkpt><trkpt lat="51.7303582840" lon="-2.2218717076"><ele>187.11</ele><time>2014-08-27T09:37:36Z</time></trkpt><trkpt lat="51.7305321246" lon="-2.2218774073"><ele>186.15</ele><time>2014-08-27T09:37:47Z</time></trkpt><trkpt lat="51.7305970006" lon="-2.2218681872"><ele>185.67</ele><time>2014-08-27T09:37:52Z</time></trkpt><trkpt lat="51.7307846714" lon="-2.2218320612"><ele>185.67</ele><time>2014-08-27T09:38:05Z</time></trkpt><trkpt lat="51.7308365554" lon="-2.2218142077"><ele>185.19</ele><time>2014-08-27T09:38:09Z</time></trkpt><trkpt lat="51.7309072148" lon="-2.2218291275"><ele>186.15</ele><time>2014-08-27T09:38:14Z</time></trkpt><trkpt lat="51.7309339531" lon="-2.2218289599"><ele>186.15</ele><time>2014-08-27T09:38:16Z</time></trkpt><trkpt lat="51.7310723383" lon="-2.2217702027"><ele>187.11</ele><time>2014-08-27T09:38:27Z</time></trkpt><trkpt lat="51.7311437521" lon="-2.2217453085"><ele>186.15</ele><time>2014-08-27T09:38:32Z</time></trkpt><trkpt lat="51.7312533036" lon="-2.2216566280"><ele>187.59</ele><time>2014-08-27T09:38:41Z</time></trkpt><trkpt lat="51.7313611787" lon="-2.2215671092"><ele>188.08</ele><time>2014-08-27T09:38:51Z</time></trkpt><trkpt lat="51.7314584926" lon="-2.2215303127"><ele>188.08</ele><time>2014-08-27T09:38:58Z</time></trkpt><trkpt lat="51.7315571476" lon="-2.2214998864"><ele>190.00</ele><time>2014-08-27T09:39:06Z</time></trkpt><trkpt lat="51.7315806169" lon="-2.2214847989"><ele>189.04</ele><time>2014-08-27T09:39:08Z</time></trkpt><trkpt lat="51.7316125520" lon="-2.2214428056"><ele>189.52</ele><time>2014-08-27T09:39:22Z</time></trkpt><trkpt lat="51.7316120490" lon="-2.2214440629"><ele>186.63</ele><time>2014-08-27T09:39:25Z</time></trkpt><trkpt lat="51.7316108756" lon="-2.2214441467"><ele>187.11</ele><time>2014-08-27T09:39:29Z</time></trkpt><trkpt lat="51.7316095345" lon="-2.2214428894"><ele>190.00</ele><time>2014-08-27T09:39:31Z</time></trkpt><trkpt lat="51.7316058464" lon="-2.2214357648"><ele>190.48</ele><time>2014-08-27T09:39:41Z</time></trkpt><trkpt lat="51.7316416372" lon="-2.2214029077"><ele>190.48</ele><time>2014-08-27T09:39:46Z</time></trkpt><trkpt lat="51.7316972930" lon="-2.2213665303"><ele>190.00</ele><time>2014-08-27T09:39:51Z</time></trkpt><trkpt lat="51.7318431381" lon="-2.2212549672"><ele>189.04</ele><time>2014-08-27T09:40:05Z</time></trkpt><trkpt lat="51.7318681162" lon="-2.2212388739"><ele>190.96</ele><time>2014-08-27T09:40:07Z</time></trkpt><trkpt lat="51.7319356743" lon="-2.2211810388"><ele>191.44</ele><time>2014-08-27T09:40:12Z</time></trkpt><trkpt lat="51.7321312241" lon="-2.2210185137"><ele>191.44</ele><time>2014-08-27T09:40:27Z</time></trkpt><trkpt lat="51.7323019635" lon="-2.2208548989"><ele>191.44</ele><time>2014-08-27T09:40:40Z</time></trkpt><trkpt lat="51.7323250975" lon="-2.2208405659"><ele>192.40</ele><time>2014-08-27T09:40:42Z</time></trkpt><trkpt lat="51.7323556915" lon="-2.2208071221"><ele>190.96</ele><time>2014-08-27T09:40:45Z</time></trkpt><trkpt lat="51.7323717009" lon="-2.2207889333"><ele>192.88</ele><time>2014-08-27T09:40:47Z</time></trkpt><trkpt lat="51.7324061505" lon="-2.2207488678"><ele>194.32</ele><time>2014-08-27T09:40:50Z</time></trkpt><trkpt lat="51.7325106729" lon="-2.2205682378"><ele>196.25</ele><time>2014-08-27T09:41:02Z</time></trkpt><trkpt lat="51.7326138541" lon="-2.2203720175"><ele>196.25</ele><time>2014-08-27T09:41:14Z</time></trkpt><trkpt lat="51.7326821666" lon="-2.2204127535"><ele>195.28</ele><time>2014-08-27T09:41:34Z</time></trkpt><trkpt lat="51.7327966634" lon="-2.2203595284"><ele>193.84</ele><time>2014-08-27T09:41:49Z</time></trkpt><trkpt lat="51.7328116670" lon="-2.2203442734"><ele>194.80</ele><time>2014-08-27T09:41:51Z</time></trkpt><trkpt lat="51.7328348011" lon="-2.2203462850"><ele>193.36</ele><time>2014-08-27T09:41:53Z</time></trkpt><trkpt lat="51.7328882776" lon="-2.2203625459"><ele>194.32</ele><time>2014-08-27T09:42:06Z</time></trkpt><trkpt lat="51.7328923848" lon="-2.2203647252"><ele>193.84</ele><time>2014-08-27T09:42:30Z</time></trkpt><trkpt lat="51.7329712585" lon="-2.2203203849"><ele>194.32</ele><time>2014-08-27T09:42:43Z</time></trkpt><trkpt lat="51.7330104858" lon="-2.2203268390"><ele>193.36</ele><time>2014-08-27T09:42:48Z</time></trkpt><trkpt lat="51.7331267428" lon="-2.2203601152"><ele>193.36</ele><time>2014-08-27T09:43:02Z</time></trkpt><trkpt lat="51.7332940456" lon="-2.2204523161"><ele>192.40</ele><time>2014-08-27T09:43:20Z</time></trkpt><trkpt lat="51.7333068699" lon="-2.2204633802"><ele>191.92</ele><time>2014-08-27T09:43:22Z</time></trkpt><trkpt lat="51.7333522160" lon="-2.2204903699"><ele>193.84</ele><time>2014-08-27T09:43:26Z</time></trkpt><trkpt lat="51.7333836481" lon="-2.2205060441"><ele>191.92</ele><time>2014-08-27T09:43:29Z</time></trkpt><trkpt lat="51.7335092928" lon="-2.2205169406"><ele>192.40</ele><time>2014-08-27T09:43:42Z</time></trkpt><trkpt lat="51.7336468399" lon="-2.2205815651"><ele>191.92</ele><time>2014-08-27T09:43:55Z</time></trkpt><trkpt lat="51.7337527033" lon="-2.2206281684"><ele>190.96</ele><time>2014-08-27T09:44:06Z</time></trkpt><trkpt lat="51.7339210119" lon="-2.2206095606"><ele>191.44</ele><time>2014-08-27T09:44:24Z</time></trkpt><trkpt lat="51.7340516858" lon="-2.2206229717"><ele>191.92</ele><time>2014-08-27T09:44:40Z</time></trkpt><trkpt lat="51.7341086827" lon="-2.2206258215"><ele>191.92</ele><time>2014-08-27T09:44:50Z</time></trkpt><trkpt lat="51.7341523524" lon="-2.2206042800"><ele>191.44</ele><time>2014-08-27T09:44:54Z</time></trkpt><trkpt lat="51.7341958545" lon="-2.2206009272"><ele>191.44</ele><time>2014-08-27T09:44:58Z</time></trkpt><trkpt lat="51.7343655881" lon="-2.2206089739"><ele>192.40</ele><time>2014-08-27T09:45:13Z</time></trkpt><trkpt lat="51.7345009558" lon="-2.2206304315"><ele>192.88</ele><time>2014-08-27T09:45:27Z</time></trkpt><trkpt lat="51.7345213238" lon="-2.2206467763"><ele>192.88</ele><time>2014-08-27T09:45:50Z</time></trkpt><trkpt lat="51.7345352378" lon="-2.2206441779"><ele>193.36</ele><time>2014-08-27T09:46:13Z</time></trkpt><trkpt lat="51.7345351540" lon="-2.2206442617"><ele>193.36</ele><time>2014-08-27T09:46:14Z</time></trkpt><trkpt lat="51.7345404346" lon="-2.2206456028"><ele>192.40</ele><time>2014-08-27T09:46:15Z</time></trkpt><trkpt lat="51.7345693521" lon="-2.2206440940"><ele>192.88</ele><time>2014-08-27T09:46:33Z</time></trkpt><trkpt lat="51.7346138600" lon="-2.2206349578"><ele>191.92</ele><time>2014-08-27T09:46:47Z</time></trkpt><trkpt lat="51.7347139399" lon="-2.2205508035"><ele>191.44</ele><time>2014-08-27T09:47:00Z</time></trkpt><trkpt lat="51.7347880360" lon="-2.2205053736"><ele>191.92</ele><time>2014-08-27T09:47:08Z</time></trkpt><trkpt lat="51.7349538300" lon="-2.2204649728"><ele>192.40</ele><time>2014-08-27T09:47:24Z</time></trkpt><trkpt lat="51.7350231484" lon="-2.2204979975"><ele>190.96</ele><time>2014-08-27T09:47:37Z</time></trkpt><trkpt lat="51.7350181192" lon="-2.2205047868"><ele>191.44</ele><time>2014-08-27T09:48:01Z</time></trkpt><trkpt lat="51.7350244056" lon="-2.2204990033"><ele>191.44</ele><time>2014-08-27T09:48:36Z</time></trkpt><trkpt lat="51.7350228131" lon="-2.2204889450"><ele>193.36</ele><time>2014-08-27T09:48:59Z</time></trkpt><trkpt lat="51.7350233160" lon="-2.2204886097"><ele>190.48</ele><time>2014-08-27T09:49:00Z</time></trkpt><trkpt lat="51.7350255791" lon="-2.2204897832"><ele>194.80</ele><time>2014-08-27T09:49:04Z</time></trkpt><trkpt lat="51.7350259144" lon="-2.2204896994"><ele>192.88</ele><time>2014-08-27T09:49:05Z</time></trkpt><trkpt lat="51.7350264173" lon="-2.2204891965"><ele>191.92</ele><time>2014-08-27T09:49:07Z</time></trkpt><trkpt lat="51.7350388225" lon="-2.2204974946"><ele>190.48</ele><time>2014-08-27T09:49:09Z</time></trkpt><trkpt lat="51.7352194525" lon="-2.2205832414"><ele>188.08</ele><time>2014-08-27T09:49:25Z</time></trkpt><trkpt lat="51.7352983262" lon="-2.2205716744"><ele>187.11</ele><time>2014-08-27T09:49:32Z</time></trkpt><trkpt lat="51.7353831511" lon="-2.2204701696"><ele>188.08</ele><time>2014-08-27T09:49:40Z</time></trkpt><trkpt lat="51.7354144156" lon="-2.2204215545"><ele>186.15</ele><time>2014-08-27T09:49:44Z</time></trkpt><trkpt lat="51.7354616895" lon="-2.2203561757"><ele>188.08</ele><time>2014-08-27T09:49:50Z</time></trkpt><trkpt lat="51.7355393060" lon="-2.2201906331"><ele>188.56</ele><time>2014-08-27T09:50:04Z</time></trkpt><trkpt lat="51.7355366237" lon="-2.2201194707"><ele>189.04</ele><time>2014-08-27T09:50:23Z</time></trkpt><trkpt lat="51.7355410662" lon="-2.2200820874"><ele>189.52</ele><time>2014-08-27T09:50:25Z</time></trkpt><trkpt lat="51.7355483584" lon="-2.2200012021"><ele>188.56</ele><time>2014-08-27T09:50:29Z</time></trkpt><trkpt lat="51.7355450895" lon="-2.2199332248"><ele>189.52</ele><time>2014-08-27T09:50:33Z</time></trkpt><trkpt lat="51.7355646193" lon="-2.2197460569"><ele>188.56</ele><time>2014-08-27T09:50:47Z</time></trkpt><trkpt lat="51.7355649546" lon="-2.2196244355"><ele>189.52</ele><time>2014-08-27T09:50:52Z</time></trkpt><trkpt lat="51.7355591711" lon="-2.2193661053"><ele>188.56</ele><time>2014-08-27T09:51:03Z</time></trkpt><trkpt lat="51.7355219554" lon="-2.2190653626"><ele>186.63</ele><time>2014-08-27T09:51:19Z</time></trkpt><trkpt lat="51.7354022618" lon="-2.2187400609"><ele>186.15</ele><time>2014-08-27T09:51:38Z</time></trkpt><trkpt lat="51.7353906110" lon="-2.2186388914"><ele>184.71</ele><time>2014-08-27T09:51:43Z</time></trkpt><trkpt lat="51.7353344522" lon="-2.2183807287"><ele>185.67</ele><time>2014-08-27T09:51:54Z</time></trkpt><trkpt lat="51.7352253199" lon="-2.2181474604"><ele>183.75</ele><time>2014-08-27T09:52:10Z</time></trkpt><trkpt lat="51.7351846676" lon="-2.2180620488"><ele>184.71</ele><time>2014-08-27T09:52:18Z</time></trkpt><trkpt lat="51.7351612821" lon="-2.2179991845"><ele>186.15</ele><time>2014-08-27T09:52:27Z</time></trkpt><trkpt lat="51.7350414209" lon="-2.2178529203"><ele>186.63</ele><time>2014-08-27T09:52:42Z</time></trkpt><trkpt lat="51.7349135131" lon="-2.2177482303"><ele>186.15</ele><time>2014-08-27T09:53:00Z</time></trkpt><trkpt lat="51.7348819971" lon="-2.2177084163"><ele>185.67</ele><time>2014-08-27T09:53:17Z</time></trkpt><trkpt lat="51.7348661553" lon="-2.2177333105"><ele>182.31</ele><time>2014-08-27T09:53:31Z</time></trkpt><trkpt lat="51.7348660715" lon="-2.2177216597"><ele>185.67</ele><time>2014-08-27T09:53:32Z</time></trkpt><trkpt lat="51.7348261736" lon="-2.2177121881"><ele>188.08</ele><time>2014-08-27T09:53:41Z</time></trkpt><trkpt lat="51.7347112577" lon="-2.2176256031"><ele>190.00</ele><time>2014-08-27T09:53:55Z</time></trkpt><trkpt lat="51.7347000260" lon="-2.2176238429"><ele>186.15</ele><time>2014-08-27T09:53:56Z</time></trkpt><trkpt lat="51.7346815858" lon="-2.2176286206"><ele>190.48</ele><time>2014-08-27T09:53:58Z</time></trkpt><trkpt lat="51.7346666660" lon="-2.2176333144"><ele>190.48</ele><time>2014-08-27T09:53:59Z</time></trkpt><trkpt lat="51.7346219905" lon="-2.2176370025"><ele>187.59</ele><time>2014-08-27T09:54:04Z</time></trkpt><trkpt lat="51.7346167937" lon="-2.2176321410"><ele>190.48</ele><time>2014-08-27T09:54:05Z</time></trkpt><trkpt lat="51.7346474715" lon="-2.2176186461"><ele>190.00</ele><time>2014-08-27T09:54:26Z</time></trkpt><trkpt lat="51.7346307077" lon="-2.2176098451"><ele>192.40</ele><time>2014-08-27T09:54:31Z</time></trkpt><trkpt lat="51.7345424462" lon="-2.2175899800"><ele>190.00</ele><time>2014-08-27T09:54:36Z</time></trkpt><trkpt lat="51.7345032189" lon="-2.2175628226"><ele>193.84</ele><time>2014-08-27T09:54:38Z</time></trkpt><trkpt lat="51.7344787437" lon="-2.2175425384"><ele>195.28</ele><time>2014-08-27T09:54:40Z</time></trkpt><trkpt lat="51.7344527598" lon="-2.2175197396"><ele>193.36</ele><time>2014-08-27T09:54:42Z</time></trkpt><trkpt lat="51.7344111856" lon="-2.2175156325"><ele>191.44</ele><time>2014-08-27T09:54:47Z</time></trkpt><trkpt lat="51.7343486566" lon="-2.2175072506"><ele>193.36</ele><time>2014-08-27T09:54:53Z</time></trkpt><trkpt lat="51.7342303880" lon="-2.2174483258"><ele>195.28</ele><time>2014-08-27T09:55:05Z</time></trkpt><trkpt lat="51.7342218384" lon="-2.2174434643"><ele>195.28</ele><time>2014-08-27T09:55:06Z</time></trkpt><trkpt lat="51.7341457307" lon="-2.2174061649"><ele>197.21</ele><time>2014-08-27T09:55:14Z</time></trkpt><trkpt lat="51.7341003846" lon="-2.2173554543"><ele>197.21</ele><time>2014-08-27T09:55:19Z</time></trkpt><trkpt lat="51.7340422980" lon="-2.2173286323"><ele>198.65</ele><time>2014-08-27T09:55:25Z</time></trkpt><trkpt lat="51.7340317369" lon="-2.2173281293"><ele>194.32</ele><time>2014-08-27T09:55:26Z</time></trkpt><trkpt lat="51.7339260411" lon="-2.2173040733"><ele>197.21</ele><time>2014-08-27T09:55:40Z</time></trkpt><trkpt lat="51.7338498496" lon="-2.2173153050"><ele>196.25</ele><time>2014-08-27T09:55:48Z</time></trkpt><trkpt lat="51.7337474227" lon="-2.2173134610"><ele>197.69</ele><time>2014-08-27T09:55:58Z</time></trkpt><trkpt lat="51.7337370291" lon="-2.2173163109"><ele>194.80</ele><time>2014-08-27T09:55:59Z</time></trkpt><trkpt lat="51.7336863186" lon="-2.2173304763"><ele>198.65</ele><time>2014-08-27T09:56:03Z</time></trkpt><trkpt lat="51.7335745040" lon="-2.2173466533"><ele>198.65</ele><time>2014-08-27T09:56:15Z</time></trkpt><trkpt lat="51.7335641105" lon="-2.2173458990"><ele>195.28</ele><time>2014-08-27T09:56:16Z</time></trkpt><trkpt lat="51.7335526273" lon="-2.2173455637"><ele>196.25</ele><time>2014-08-27T09:56:17Z</time></trkpt><trkpt lat="51.7335401382" lon="-2.2173541132"><ele>196.73</ele><time>2014-08-27T09:56:19Z</time></trkpt><trkpt lat="51.7335225362" lon="-2.2173709609"><ele>195.77</ele><time>2014-08-27T09:56:21Z</time></trkpt><trkpt lat="51.7334517092" lon="-2.2173893172"><ele>194.80</ele><time>2014-08-27T09:56:29Z</time></trkpt><trkpt lat="51.7334335204" lon="-2.2174039856"><ele>196.25</ele><time>2014-08-27T09:56:31Z</time></trkpt><trkpt lat="51.7334008310" lon="-2.2174080089"><ele>195.28</ele><time>2014-08-27T09:56:34Z</time></trkpt><trkpt lat="51.7332970630" lon="-2.2173912451"><ele>199.13</ele><time>2014-08-27T09:56:43Z</time></trkpt><trkpt lat="51.7332618590" lon="-2.2173784208"><ele>197.69</ele><time>2014-08-27T09:56:46Z</time></trkpt><trkpt lat="51.7332102265" lon="-2.2173785884"><ele>199.61</ele><time>2014-08-27T09:56:51Z</time></trkpt><trkpt lat="51.7331999168" lon="-2.2173755709"><ele>196.73</ele><time>2014-08-27T09:56:52Z</time></trkpt><trkpt lat="51.7331880983" lon="-2.2173737269"><ele>197.69</ele><time>2014-08-27T09:56:53Z</time></trkpt><trkpt lat="51.7330626212" lon="-2.2173846234"><ele>196.73</ele><time>2014-08-27T09:57:05Z</time></trkpt><trkpt lat="51.7330225557" lon="-2.2173866350"><ele>200.57</ele><time>2014-08-27T09:57:08Z</time></trkpt><trkpt lat="51.7330003437" lon="-2.2173847910"><ele>196.25</ele><time>2014-08-27T09:57:10Z</time></trkpt><trkpt lat="51.7329646368" lon="-2.2173929214"><ele>199.61</ele><time>2014-08-27T09:57:14Z</time></trkpt><trkpt lat="51.7328872718" lon="-2.2173972800"><ele>197.21</ele><time>2014-08-27T09:57:22Z</time></trkpt><trkpt lat="51.7328133434" lon="-2.2174098529"><ele>197.21</ele><time>2014-08-27T09:57:29Z</time></trkpt><trkpt lat="51.7327526584" lon="-2.2174022254"><ele>197.21</ele><time>2014-08-27T09:57:35Z</time></trkpt><trkpt lat="51.7326416820" lon="-2.2174224257"><ele>200.09</ele><time>2014-08-27T09:57:47Z</time></trkpt><trkpt lat="51.7325091641" lon="-2.2174216714"><ele>199.13</ele><time>2014-08-27T09:58:01Z</time></trkpt><trkpt lat="51.7323556915" lon="-2.2174399439"><ele>199.13</ele><time>2014-08-27T09:58:16Z</time></trkpt><trkpt lat="51.7322216649" lon="-2.2174498346"><ele>197.21</ele><time>2014-08-27T09:58:29Z</time></trkpt><trkpt lat="51.7320751492" lon="-2.2174702026"><ele>200.09</ele><time>2014-08-27T09:58:44Z</time></trkpt><trkpt lat="51.7319001351" lon="-2.2174596414"><ele>199.61</ele><time>2014-08-27T09:59:01Z</time></trkpt><trkpt lat="51.7317361850" lon="-2.2174191568"><ele>199.61</ele><time>2014-08-27T09:59:17Z</time></trkpt><trkpt lat="51.7316473369" lon="-2.2173796780"><ele>199.61</ele><time>2014-08-27T09:59:27Z</time></trkpt><trkpt lat="51.7315123882" lon="-2.2173284646"><ele>198.65</ele><time>2014-08-27T09:59:42Z</time></trkpt><trkpt lat="51.7313915212" lon="-2.2172687016"><ele>199.13</ele><time>2014-08-27T09:59:55Z</time></trkpt><trkpt lat="51.7313739192" lon="-2.2172519378"><ele>198.17</ele><time>2014-08-27T09:59:57Z</time></trkpt><trkpt lat="51.7312425748" lon="-2.2171467450"><ele>198.17</ele><time>2014-08-27T10:00:12Z</time></trkpt><trkpt lat="51.7310980707" lon="-2.2170638479"><ele>196.73</ele><time>2014-08-27T10:00:27Z</time></trkpt><trkpt lat="51.7309647147" lon="-2.2170095332"><ele>195.77</ele><time>2014-08-27T10:00:41Z</time></trkpt><trkpt lat="51.7308232281" lon="-2.2169566434"><ele>196.73</ele><time>2014-08-27T10:00:54Z</time></trkpt><trkpt lat="51.7308132537" lon="-2.2169548832"><ele>196.25</ele><time>2014-08-27T10:00:55Z</time></trkpt><trkpt lat="51.7307458632" lon="-2.2169501055"><ele>197.69</ele><time>2014-08-27T10:01:01Z</time></trkpt><trkpt lat="51.7307054624" lon="-2.2169029154"><ele>197.21</ele><time>2014-08-27T10:01:05Z</time></trkpt><trkpt lat="51.7306838371" lon="-2.2168964613"><ele>198.17</ele><time>2014-08-27T10:01:10Z</time></trkpt><trkpt lat="51.7306542490" lon="-2.2168859839"><ele>196.73</ele><time>2014-08-27T10:01:13Z</time></trkpt><trkpt lat="51.7306119204" lon="-2.2168863192"><ele>196.73</ele><time>2014-08-27T10:01:18Z</time></trkpt><trkpt lat="51.7305605393" lon="-2.2168671247"><ele>195.77</ele><time>2014-08-27T10:01:23Z</time></trkpt><trkpt lat="51.7304144427" lon="-2.2167620994"><ele>195.28</ele><time>2014-08-27T10:01:39Z</time></trkpt><trkpt lat="51.7303970084" lon="-2.2167535499"><ele>198.17</ele><time>2014-08-27T10:01:41Z</time></trkpt><trkpt lat="51.7303809151" lon="-2.2167481016"><ele>192.88</ele><time>2014-08-27T10:01:43Z</time></trkpt><trkpt lat="51.7303727847" lon="-2.2167460900"><ele>196.73</ele><time>2014-08-27T10:01:44Z</time></trkpt><trkpt lat="51.7302489001" lon="-2.2167017497"><ele>196.73</ele><time>2014-08-27T10:01:57Z</time></trkpt><trkpt lat="51.7302141152" lon="-2.2166791186"><ele>194.32</ele><time>2014-08-27T10:02:03Z</time></trkpt><trkpt lat="51.7301886342" lon="-2.2166709043"><ele>195.28</ele><time>2014-08-27T10:02:07Z</time></trkpt><trkpt lat="51.7301390134" lon="-2.2166982293"><ele>194.32</ele><time>2014-08-27T10:02:13Z</time></trkpt><trkpt lat="51.7300535180" lon="-2.2167585790"><ele>194.80</ele><time>2014-08-27T10:02:28Z</time></trkpt><trkpt lat="51.7300531827" lon="-2.2167617641"><ele>193.36</ele><time>2014-08-27T10:02:51Z</time></trkpt><trkpt lat="51.7300521769" lon="-2.2167638596"><ele>197.21</ele><time>2014-08-27T10:03:06Z</time></trkpt><trkpt lat="51.7300519254" lon="-2.2167641949"><ele>193.84</ele><time>2014-08-27T10:03:11Z</time></trkpt><trkpt lat="51.7300511710" lon="-2.2167649493"><ele>195.28</ele><time>2014-08-27T10:03:16Z</time></trkpt><trkpt lat="51.7300441302" lon="-2.2167656198"><ele>195.28</ele><time>2014-08-27T10:03:43Z</time></trkpt><trkpt lat="51.7300452199" lon="-2.2167793661"><ele>195.28</ele><time>2014-08-27T10:04:08Z</time></trkpt><trkpt lat="51.7300397716" lon="-2.2167821322"><ele>195.28</ele><time>2014-08-27T10:04:36Z</time></trkpt><trkpt lat="51.7300376762" lon="-2.2167833056"><ele>189.52</ele><time>2014-08-27T10:04:41Z</time></trkpt><trkpt lat="51.7300375085" lon="-2.2167834733"><ele>192.88</ele><time>2014-08-27T10:04:42Z</time></trkpt><trkpt lat="51.7300375085" lon="-2.2167832218"><ele>197.21</ele><time>2014-08-27T10:04:43Z</time></trkpt><trkpt lat="51.7300375085" lon="-2.2167830542"><ele>192.88</ele><time>2014-08-27T10:04:44Z</time></trkpt><trkpt lat="51.7300249357" lon="-2.2168113012"><ele>195.77</ele><time>2014-08-27T10:04:56Z</time></trkpt><trkpt lat="51.7300438788" lon="-2.2168115526"><ele>194.80</ele><time>2014-08-27T10:05:00Z</time></trkpt><trkpt lat="51.7301363312" lon="-2.2167626861"><ele>199.13</ele><time>2014-08-27T10:05:13Z</time></trkpt><trkpt lat="51.7301185615" lon="-2.2167657875"><ele>194.80</ele><time>2014-08-27T10:05:14Z</time></trkpt><trkpt lat="51.7300576251" lon="-2.2168188449"><ele>194.80</ele><time>2014-08-27T10:05:36Z</time></trkpt><trkpt lat="51.7300506681" lon="-2.2168120556"><ele>195.28</ele><time>2014-08-27T10:06:00Z</time></trkpt><trkpt lat="51.7300417833" lon="-2.2167973034"><ele>195.28</ele><time>2014-08-27T10:06:21Z</time></trkpt><trkpt lat="51.7300385144" lon="-2.2168056853"><ele>195.28</ele><time>2014-08-27T10:06:50Z</time></trkpt><trkpt lat="51.7300372571" lon="-2.2168081161"><ele>195.28</ele><time>2014-08-27T10:07:16Z</time></trkpt><trkpt lat="51.7300380114" lon="-2.2168116365"><ele>195.77</ele><time>2014-08-27T10:07:44Z</time></trkpt><trkpt lat="51.7300386820" lon="-2.2168129776"><ele>194.80</ele><time>2014-08-27T10:07:56Z</time></trkpt><trkpt lat="51.7300374247" lon="-2.2168150730"><ele>194.32</ele><time>2014-08-27T10:08:23Z</time></trkpt><trkpt lat="51.7300380953" lon="-2.2168136481"><ele>195.28</ele><time>2014-08-27T10:08:52Z</time></trkpt><trkpt lat="51.7300380953" lon="-2.2168150730"><ele>195.28</ele><time>2014-08-27T10:09:16Z</time></trkpt><trkpt lat="51.7300359998" lon="-2.2168159951"><ele>195.28</ele><time>2014-08-27T10:09:45Z</time></trkpt><trkpt lat="51.7300372571" lon="-2.2168185096"><ele>195.28</ele><time>2014-08-27T10:10:12Z</time></trkpt><trkpt lat="51.7300383467" lon="-2.2168173362"><ele>194.80</ele><time>2014-08-27T10:10:42Z</time></trkpt><trkpt lat="51.7300391011" lon="-2.2168156598"><ele>195.77</ele><time>2014-08-27T10:11:05Z</time></trkpt><trkpt lat="51.7300384305" lon="-2.2168139834"><ele>194.80</ele><time>2014-08-27T10:11:37Z</time></trkpt><trkpt lat="51.7300372571" lon="-2.2168052662"><ele>195.77</ele><time>2014-08-27T10:11:57Z</time></trkpt><trkpt lat="51.7300367542" lon="-2.2168037575"><ele>195.77</ele><time>2014-08-27T10:12:21Z</time></trkpt><trkpt lat="51.7300315574" lon="-2.2168045957"><ele>195.77</ele><time>2014-08-27T10:12:50Z</time></trkpt><trkpt lat="51.7300315574" lon="-2.2168002371"><ele>194.32</ele><time>2014-08-27T10:13:16Z</time></trkpt><trkpt lat="51.7300301325" lon="-2.2167997342"><ele>196.25</ele><time>2014-08-27T10:13:36Z</time></trkpt><trkpt lat="51.7300275341" lon="-2.2168030031"><ele>195.28</ele><time>2014-08-27T10:13:56Z</time></trkpt><trkpt lat="51.7300203256" lon="-2.2167931963"><ele>195.28</ele><time>2014-08-27T10:14:24Z</time></trkpt><trkpt lat="51.7300267797" lon="-2.2168232035"><ele>194.80</ele><time>2014-08-27T10:14:49Z</time></trkpt><trkpt lat="51.7300290428" lon="-2.2168280650"><ele>194.80</ele><time>2014-08-27T10:14:50Z</time></trkpt><trkpt lat="51.7300318088" lon="-2.2168184258"><ele>196.73</ele><time>2014-08-27T10:15:11Z</time></trkpt><trkpt lat="51.7300322279" lon="-2.2168195155"><ele>192.40</ele><time>2014-08-27T10:15:20Z</time></trkpt><trkpt lat="51.7300321441" lon="-2.2168199345"><ele>195.77</ele><time>2014-08-27T10:15:21Z</time></trkpt><trkpt lat="51.7300041486" lon="-2.2168663703"><ele>192.40</ele><time>2014-08-27T10:15:30Z</time></trkpt><trkpt lat="51.7300044838" lon="-2.2168653645"><ele>196.73</ele><time>2014-08-27T10:15:31Z</time></trkpt><trkpt lat="51.7299979459" lon="-2.2168900073"><ele>201.53</ele><time>2014-08-27T10:15:35Z</time></trkpt><trkpt lat="51.7299982812" lon="-2.2168989759"><ele>200.57</ele><time>2014-08-27T10:15:36Z</time></trkpt><trkpt lat="51.7300040647" lon="-2.2169144824"><ele>197.21</ele><time>2014-08-27T10:15:39Z</time></trkpt><trkpt lat="51.7300054897" lon="-2.2169249598"><ele>198.17</ele><time>2014-08-27T10:15:53Z</time></trkpt><trkpt lat="51.7300041486" lon="-2.2169268876"><ele>194.32</ele><time>2014-08-27T10:16:01Z</time></trkpt><trkpt lat="51.7300063279" lon="-2.2169357724"><ele>198.17</ele><time>2014-08-27T10:16:02Z</time></trkpt><trkpt lat="51.7300386820" lon="-2.2170014866"><ele>197.69</ele><time>2014-08-27T10:16:19Z</time></trkpt><trkpt lat="51.7300350778" lon="-2.2170038335"><ele>195.28</ele><time>2014-08-27T10:16:55Z</time></trkpt><trkpt lat="51.7300351616" lon="-2.2170039173"><ele>199.61</ele><time>2014-08-27T10:16:56Z</time></trkpt><trkpt lat="51.7300448846" lon="-2.2170044202"><ele>198.17</ele><time>2014-08-27T10:17:09Z</time></trkpt><trkpt lat="51.7300380114" lon="-2.2169984691"><ele>197.69</ele><time>2014-08-27T10:17:42Z</time></trkpt><trkpt lat="51.7300318927" lon="-2.2169806156"><ele>197.69</ele><time>2014-08-27T10:18:06Z</time></trkpt><trkpt lat="51.7300434597" lon="-2.2169771791"><ele>198.65</ele><time>2014-08-27T10:18:22Z</time></trkpt><trkpt lat="51.7300446332" lon="-2.2169708088"><ele>201.53</ele><time>2014-08-27T10:18:43Z</time></trkpt><trkpt lat="51.7300440464" lon="-2.2169695515"><ele>198.17</ele><time>2014-08-27T10:18:47Z</time></trkpt><trkpt lat="51.7299937550" lon="-2.2169321682"><ele>198.17</ele><time>2014-08-27T10:19:06Z</time></trkpt><trkpt lat="51.7300052382" lon="-2.2168260533"><ele>196.25</ele><time>2014-08-27T10:19:20Z</time></trkpt><trkpt lat="51.7300140392" lon="-2.2168071102"><ele>196.25</ele><time>2014-08-27T10:19:36Z</time></trkpt><trkpt lat="51.7300214991" lon="-2.2168014944"><ele>195.77</ele><time>2014-08-27T10:20:06Z</time></trkpt><trkpt lat="51.7300245166" lon="-2.2167988960"><ele>196.25</ele><time>2014-08-27T10:20:33Z</time></trkpt><trkpt lat="51.7300298810" lon="-2.2168057691"><ele>196.73</ele><time>2014-08-27T10:20:56Z</time></trkpt><trkpt lat="51.7300308030" lon="-2.2168077808"><ele>196.25</ele><time>2014-08-27T10:21:22Z</time></trkpt><trkpt lat="51.7300313897" lon="-2.2168076970"><ele>195.28</ele><time>2014-08-27T10:21:49Z</time></trkpt><trkpt lat="51.7300306354" lon="-2.2168077808"><ele>196.73</ele><time>2014-08-27T10:22:12Z</time></trkpt><trkpt lat="51.7300315574" lon="-2.2168088704"><ele>196.25</ele><time>2014-08-27T10:22:41Z</time></trkpt><trkpt lat="51.7300318927" lon="-2.2168083675"><ele>196.25</ele><time>2014-08-27T10:23:08Z</time></trkpt><trkpt lat="51.7300295457" lon="-2.2167984769"><ele>196.73</ele><time>2014-08-27T10:23:31Z</time></trkpt><trkpt lat="51.7300263606" lon="-2.2167978063"><ele>196.73</ele><time>2014-08-27T10:24:00Z</time></trkpt><trkpt lat="51.7300287075" lon="-2.2167970520"><ele>196.25</ele><time>2014-08-27T10:24:28Z</time></trkpt><trkpt lat="51.7300292943" lon="-2.2167992312"><ele>196.73</ele><time>2014-08-27T10:25:01Z</time></trkpt><trkpt lat="51.7300297134" lon="-2.2167992312"><ele>196.73</ele><time>2014-08-27T10:25:29Z</time></trkpt><trkpt lat="51.7300432920" lon="-2.2167698108"><ele>197.21</ele><time>2014-08-27T10:25:52Z</time></trkpt><trkpt lat="51.7300197389" lon="-2.2167364508"><ele>196.73</ele><time>2014-08-27T10:25:55Z</time></trkpt><trkpt lat="51.7299209163" lon="-2.2166020889"><ele>196.73</ele><time>2014-08-27T10:26:10Z</time></trkpt><trkpt lat="51.7299137078" lon="-2.2166020889"><ele>196.73</ele><time>2014-08-27T10:26:28Z</time></trkpt><trkpt lat="51.7298837844" lon="-2.2165936232"><ele>197.21</ele><time>2014-08-27T10:26:39Z</time></trkpt><trkpt lat="51.7298668530" lon="-2.2165895998"><ele>195.77</ele><time>2014-08-27T10:26:41Z</time></trkpt><trkpt lat="51.7298106942" lon="-2.2166887578"><ele>198.65</ele><time>2014-08-27T10:26:55Z</time></trkpt><trkpt lat="51.7297712993" lon="-2.2167496942"><ele>196.73</ele><time>2014-08-27T10:27:08Z</time></trkpt><trkpt lat="51.7297379393" lon="-2.2167291585"><ele>197.69</ele><time>2014-08-27T10:27:12Z</time></trkpt><trkpt lat="51.7296832893" lon="-2.2166868299"><ele>198.65</ele><time>2014-08-27T10:27:19Z</time></trkpt><trkpt lat="51.7295445688" lon="-2.2165945452"><ele>197.21</ele><time>2014-08-27T10:27:32Z</time></trkpt><trkpt lat="51.7294077761" lon="-2.2164779529"><ele>197.69</ele><time>2014-08-27T10:27:44Z</time></trkpt><trkpt lat="51.7293547187" lon="-2.2164227162"><ele>197.21</ele><time>2014-08-27T10:27:58Z</time></trkpt><trkpt lat="51.7293335125" lon="-2.2164153401"><ele>197.69</ele><time>2014-08-27T10:28:29Z</time></trkpt><trkpt lat="51.7293255497" lon="-2.2164093889"><ele>197.21</ele><time>2014-08-27T10:28:30Z</time></trkpt><trkpt lat="51.7292285711" lon="-2.2163497098"><ele>197.21</ele><time>2014-08-27T10:28:40Z</time></trkpt><trkpt lat="51.7292226199" lon="-2.2163419984"><ele>197.69</ele><time>2014-08-27T10:28:41Z</time></trkpt><trkpt lat="51.7291188519" lon="-2.2162723448"><ele>196.73</ele><time>2014-08-27T10:28:57Z</time></trkpt><trkpt lat="51.7290968075" lon="-2.2162637115"><ele>197.21</ele><time>2014-08-27T10:29:22Z</time></trkpt><trkpt lat="51.7289719172" lon="-2.2161875200"><ele>196.25</ele><time>2014-08-27T10:29:34Z</time></trkpt><trkpt lat="51.7287912033" lon="-2.2160234861"><ele>196.25</ele><time>2014-08-27T10:29:49Z</time></trkpt><trkpt lat="51.7286595237" lon="-2.2158177104"><ele>196.25</ele><time>2014-08-27T10:30:02Z</time></trkpt><trkpt lat="51.7286111601" lon="-2.2157778125"><ele>196.73</ele><time>2014-08-27T10:30:06Z</time></trkpt><trkpt lat="51.7284408398" lon="-2.2156903893"><ele>195.77</ele><time>2014-08-27T10:30:21Z</time></trkpt><trkpt lat="51.7282918096" lon="-2.2156561073"><ele>194.80</ele><time>2014-08-27T10:30:33Z</time></trkpt><trkpt lat="51.7282829247" lon="-2.2156439535"><ele>193.84</ele><time>2014-08-27T10:30:34Z</time></trkpt><trkpt lat="51.7281366605" lon="-2.2155335639"><ele>194.80</ele><time>2014-08-27T10:30:47Z</time></trkpt><trkpt lat="51.7281283624" lon="-2.2155219968"><ele>194.32</ele><time>2014-08-27T10:30:48Z</time></trkpt><trkpt lat="51.7280803341" lon="-2.2155254334"><ele>195.28</ele><time>2014-08-27T10:31:03Z</time></trkpt><trkpt lat="51.7280248459" lon="-2.2155620623"><ele>194.80</ele><time>2014-08-27T10:31:11Z</time></trkpt><trkpt lat="51.7280043103" lon="-2.2155629005"><ele>195.77</ele><time>2014-08-27T10:31:13Z</time></trkpt><trkpt lat="51.7278738040" lon="-2.2155860346"><ele>194.80</ele><time>2014-08-27T10:31:26Z</time></trkpt><trkpt lat="51.7277308926" lon="-2.2155629005"><ele>195.28</ele><time>2014-08-27T10:31:40Z</time></trkpt><trkpt lat="51.7276116181" lon="-2.2154893912"><ele>194.80</ele><time>2014-08-27T10:31:52Z</time></trkpt><trkpt lat="51.7274651863" lon="-2.2154000401"><ele>196.25</ele><time>2014-08-27T10:32:07Z</time></trkpt><trkpt lat="51.7274051718" lon="-2.2153634951"><ele>194.80</ele><time>2014-08-27T10:32:13Z</time></trkpt><trkpt lat="51.7272734921" lon="-2.2152941767"><ele>194.80</ele><time>2014-08-27T10:32:26Z</time></trkpt><trkpt lat="51.7272618413" lon="-2.2152850404"><ele>194.80</ele><time>2014-08-27T10:32:28Z</time></trkpt><trkpt lat="51.7271684669" lon="-2.2152255289"><ele>193.84</ele><time>2014-08-27T10:32:39Z</time></trkpt><trkpt lat="51.7270418163" lon="-2.2151531093"><ele>192.88</ele><time>2014-08-27T10:32:53Z</time></trkpt><trkpt lat="51.7270030919" lon="-2.2151283827"><ele>194.32</ele><time>2014-08-27T10:32:57Z</time></trkpt><trkpt lat="51.7269408144" lon="-2.2150833718"><ele>195.28</ele><time>2014-08-27T10:33:04Z</time></trkpt><trkpt lat="51.7268431652" lon="-2.2150201723"><ele>193.36</ele><time>2014-08-27T10:33:14Z</time></trkpt><trkpt lat="51.7267409060" lon="-2.2149557993"><ele>194.32</ele><time>2014-08-27T10:33:25Z</time></trkpt><trkpt lat="51.7266937159" lon="-2.2149058431"><ele>193.84</ele><time>2014-08-27T10:33:31Z</time></trkpt><trkpt lat="51.7266015988" lon="-2.2148169950"><ele>192.88</ele><time>2014-08-27T10:33:40Z</time></trkpt><trkpt lat="51.7265122477" lon="-2.2147580702"><ele>193.36</ele><time>2014-08-27T10:33:49Z</time></trkpt><trkpt lat="51.7264350504" lon="-2.2147001512"><ele>192.88</ele><time>2014-08-27T10:33:57Z</time></trkpt><trkpt lat="51.7264176998" lon="-2.2146701440"><ele>193.84</ele><time>2014-08-27T10:33:59Z</time></trkpt><trkpt lat="51.7263440229" lon="-2.2146263067"><ele>191.92</ele><time>2014-08-27T10:34:07Z</time></trkpt><trkpt lat="51.7263358086" lon="-2.2146183439"><ele>191.92</ele><time>2014-08-27T10:34:08Z</time></trkpt><trkpt lat="51.7262235750" lon="-2.2145346925"><ele>191.92</ele><time>2014-08-27T10:34:20Z</time></trkpt><trkpt lat="51.7260964215" lon="-2.2144486103"><ele>191.44</ele><time>2014-08-27T10:34:32Z</time></trkpt><trkpt lat="51.7260903027" lon="-2.2144441679"><ele>190.96</ele><time>2014-08-27T10:34:33Z</time></trkpt><trkpt lat="51.7260512430" lon="-2.2144163400"><ele>190.00</ele><time>2014-08-27T10:34:37Z</time></trkpt><trkpt lat="51.7259903066" lon="-2.2143672220"><ele>191.44</ele><time>2014-08-27T10:34:43Z</time></trkpt><trkpt lat="51.7259469721" lon="-2.2142892703"><ele>191.44</ele><time>2014-08-27T10:34:50Z</time></trkpt><trkpt lat="51.7258602194" lon="-2.2141280863"><ele>192.40</ele><time>2014-08-27T10:35:02Z</time></trkpt><trkpt lat="51.7257715389" lon="-2.2139834985"><ele>188.56</ele><time>2014-08-27T10:35:13Z</time></trkpt><trkpt lat="51.7256944254" lon="-2.2138309479"><ele>187.59</ele><time>2014-08-27T10:35:26Z</time></trkpt><trkpt lat="51.7256651726" lon="-2.2137495596"><ele>187.59</ele><time>2014-08-27T10:35:31Z</time></trkpt><trkpt lat="51.7255660146" lon="-2.2135277744"><ele>186.63</ele><time>2014-08-27T10:35:46Z</time></trkpt><trkpt lat="51.7255515978" lon="-2.2134840209"><ele>186.63</ele><time>2014-08-27T10:35:49Z</time></trkpt><trkpt lat="51.7254495900" lon="-2.2133007087"><ele>186.15</ele><time>2014-08-27T10:36:04Z</time></trkpt><trkpt lat="51.7254041601" lon="-2.2131926659"><ele>186.63</ele><time>2014-08-27T10:36:18Z</time></trkpt><trkpt lat="51.7253236100" lon="-2.2129724734"><ele>185.19</ele><time>2014-08-27T10:36:30Z</time></trkpt><trkpt lat="51.7252373602" lon="-2.2128086910"><ele>184.71</ele><time>2014-08-27T10:36:43Z</time></trkpt><trkpt lat="51.7251197621" lon="-2.2125836369"><ele>184.71</ele><time>2014-08-27T10:37:00Z</time></trkpt><trkpt lat="51.7250097916" lon="-2.2123555653"><ele>184.23</ele><time>2014-08-27T10:37:17Z</time></trkpt><trkpt lat="51.7249061912" lon="-2.2120277490"><ele>182.79</ele><time>2014-08-27T10:37:36Z</time></trkpt><trkpt lat="51.7248609290" lon="-2.2117985040"><ele>181.83</ele><time>2014-08-27T10:37:48Z</time></trkpt><trkpt lat="51.7248377111" lon="-2.2114952467"><ele>178.94</ele><time>2014-08-27T10:38:07Z</time></trkpt><trkpt lat="51.7248459253" lon="-2.2114809137"><ele>178.94</ele><time>2014-08-27T10:38:08Z</time></trkpt><trkpt lat="51.7248729989" lon="-2.2114095837"><ele>179.42</ele><time>2014-08-27T10:38:14Z</time></trkpt></trkseg><trkseg><trkpt lat="51.7248456739" lon="-2.2115175426"><ele>178.46</ele><time>2014-08-27T10:43:00Z</time></trkpt><trkpt lat="51.7247056961" lon="-2.2112795804"><ele>177.50</ele><time>2014-08-27T10:43:19Z</time></trkpt><trkpt lat="51.7246403173" lon="-2.2111271974"><ele>176.06</ele><time>2014-08-27T10:43:40Z</time></trkpt><trkpt lat="51.7245848291" lon="-2.2109188233"><ele>174.14</ele><time>2014-08-27T10:43:59Z</time></trkpt><trkpt lat="51.7245653830" lon="-2.2107764985"><ele>172.69</ele><time>2014-08-27T10:44:19Z</time></trkpt><trkpt lat="51.7245507985" lon="-2.2108143847"><ele>172.69</ele><time>2014-08-27T10:44:44Z</time></trkpt><trkpt lat="51.7245447636" lon="-2.2106184997"><ele>172.21</ele><time>2014-08-27T10:45:01Z</time></trkpt><trkpt lat="51.7244645488" lon="-2.2103615943"><ele>172.21</ele><time>2014-08-27T10:45:20Z</time></trkpt><trkpt lat="51.7243559193" lon="-2.2101448383"><ele>171.73</ele><time>2014-08-27T10:45:40Z</time></trkpt><trkpt lat="51.7241841741" lon="-2.2099442594"><ele>172.69</ele><time>2014-08-27T10:46:02Z</time></trkpt><trkpt lat="51.7240944877" lon="-2.2098489571"><ele>171.73</ele><time>2014-08-27T10:46:14Z</time></trkpt><trkpt lat="51.7239464633" lon="-2.2097910382"><ele>172.21</ele><time>2014-08-27T10:46:29Z</time></trkpt><trkpt lat="51.7238455452" lon="-2.2097212169"><ele>172.69</ele><time>2014-08-27T10:46:39Z</time></trkpt><trkpt lat="51.7237738799" lon="-2.2096658126"><ele>173.66</ele><time>2014-08-27T10:46:48Z</time></trkpt><trkpt lat="51.7237500753" lon="-2.2096472047"><ele>172.69</ele><time>2014-08-27T10:46:51Z</time></trkpt><trkpt lat="51.7237101775" lon="-2.2096120007"><ele>172.69</ele><time>2014-08-27T10:46:56Z</time></trkpt><trkpt lat="51.7236421164" lon="-2.2095488850"><ele>172.21</ele><time>2014-08-27T10:47:04Z</time></trkpt><trkpt lat="51.7235191539" lon="-2.2094738670"><ele>171.73</ele><time>2014-08-27T10:47:17Z</time></trkpt><trkpt lat="51.7233712971" lon="-2.2093690094"><ele>170.29</ele><time>2014-08-27T10:47:33Z</time></trkpt><trkpt lat="51.7232677806" lon="-2.2092633136"><ele>170.29</ele><time>2014-08-27T10:47:45Z</time></trkpt><trkpt lat="51.7232062574" lon="-2.2091461346"><ele>170.29</ele><time>2014-08-27T10:47:55Z</time></trkpt><trkpt lat="51.7231857218" lon="-2.2091088351"><ele>170.29</ele><time>2014-08-27T10:47:58Z</time></trkpt><trkpt lat="51.7231366038" lon="-2.2089659236"><ele>169.33</ele><time>2014-08-27T10:48:16Z</time></trkpt><trkpt lat="51.7230480909" lon="-2.2086769156"><ele>168.85</ele><time>2014-08-27T10:48:35Z</time></trkpt><trkpt lat="51.7229197640" lon="-2.2084313259"><ele>167.89</ele><time>2014-08-27T10:48:58Z</time></trkpt><trkpt lat="51.7227802053" lon="-2.2081676312"><ele>167.41</ele><time>2014-08-27T10:49:19Z</time></trkpt><trkpt lat="51.7226694804" lon="-2.2078179382"><ele>165.48</ele><time>2014-08-27T10:49:39Z</time></trkpt><trkpt lat="51.7225459311" lon="-2.2075759526"><ele>164.52</ele><time>2014-08-27T10:50:01Z</time></trkpt><trkpt lat="51.7224191129" lon="-2.2073581908"><ele>164.04</ele><time>2014-08-27T10:50:24Z</time></trkpt><trkpt lat="51.7222328670" lon="-2.2071716096"><ele>164.04</ele><time>2014-08-27T10:50:42Z</time></trkpt><trkpt lat="51.7220560089" lon="-2.2069044784"><ele>164.04</ele><time>2014-08-27T10:51:03Z</time></trkpt><trkpt lat="51.7218996026" lon="-2.2066919971"><ele>164.04</ele><time>2014-08-27T10:51:23Z</time></trkpt><trkpt lat="51.7218106706" lon="-2.2065525223"><ele>164.04</ele><time>2014-08-27T10:51:39Z</time></trkpt><trkpt lat="51.7216872890" lon="-2.2063713055"><ele>163.08</ele><time>2014-08-27T10:51:55Z</time></trkpt><trkpt lat="51.7216413561" lon="-2.2062853910"><ele>164.52</ele><time>2014-08-27T10:52:00Z</time></trkpt><trkpt lat="51.7216327228" lon="-2.2062720638"><ele>164.04</ele><time>2014-08-27T10:52:01Z</time></trkpt><trkpt lat="51.7214456387" lon="-2.2060316708"><ele>163.08</ele><time>2014-08-27T10:52:22Z</time></trkpt><trkpt lat="51.7213331535" lon="-2.2058838978"><ele>162.60</ele><time>2014-08-27T10:52:35Z</time></trkpt><trkpt lat="51.7212210875" lon="-2.2057173494"><ele>163.08</ele><time>2014-08-27T10:52:50Z</time></trkpt><trkpt lat="51.7210752424" lon="-2.2055733483"><ele>163.56</ele><time>2014-08-27T10:53:05Z</time></trkpt><trkpt lat="51.7209352646" lon="-2.2054476198"><ele>165.00</ele><time>2014-08-27T10:53:21Z</time></trkpt><trkpt lat="51.7207764275" lon="-2.2053075582"><ele>164.52</ele><time>2014-08-27T10:53:39Z</time></trkpt><trkpt lat="51.7207240406" lon="-2.2052772995"><ele>164.52</ele><time>2014-08-27T10:53:50Z</time></trkpt><trkpt lat="51.7206361145" lon="-2.2051962465"><ele>164.52</ele><time>2014-08-27T10:54:01Z</time></trkpt><trkpt lat="51.7204561550" lon="-2.2050896287"><ele>165.00</ele><time>2014-08-27T10:54:20Z</time></trkpt><trkpt lat="51.7203562427" lon="-2.2050522454"><ele>164.52</ele><time>2014-08-27T10:54:40Z</time></trkpt><trkpt lat="51.7202963121" lon="-2.2050527483"><ele>165.48</ele><time>2014-08-27T10:54:59Z</time></trkpt><trkpt lat="51.7202193663" lon="-2.2050592862"><ele>165.48</ele><time>2014-08-27T10:55:17Z</time></trkpt><trkpt lat="51.7201212980" lon="-2.2050286084"><ele>165.48</ele><time>2014-08-27T10:55:37Z</time></trkpt><trkpt lat="51.7200218048" lon="-2.2049747966"><ele>165.96</ele><time>2014-08-27T10:55:54Z</time></trkpt><trkpt lat="51.7199767102" lon="-2.2049917281"><ele>165.48</ele><time>2014-08-27T10:56:03Z</time></trkpt><trkpt lat="51.7197974212" lon="-2.2050955798"><ele>167.41</ele><time>2014-08-27T10:56:21Z</time></trkpt><trkpt lat="51.7197241634" lon="-2.2050828394"><ele>166.93</ele><time>2014-08-27T10:56:28Z</time></trkpt><trkpt lat="51.7195188906" lon="-2.2050797381"><ele>167.41</ele><time>2014-08-27T10:56:47Z</time></trkpt><trkpt lat="51.7194842733" lon="-2.2051111702"><ele>169.81</ele><time>2014-08-27T10:57:05Z</time></trkpt><trkpt lat="51.7194307968" lon="-2.2051173728"><ele>169.33</ele><time>2014-08-27T10:57:12Z</time></trkpt><trkpt lat="51.7193879653" lon="-2.2051062249"><ele>170.29</ele><time>2014-08-27T10:57:22Z</time></trkpt><trkpt lat="51.7192101851" lon="-2.2051014472"><ele>170.77</ele><time>2014-08-27T10:57:37Z</time></trkpt><trkpt lat="51.7191707063" lon="-2.2050824203"><ele>171.25</ele><time>2014-08-27T10:57:51Z</time></trkpt><trkpt lat="51.7191697005" lon="-2.2050796542"><ele>171.73</ele><time>2014-08-27T10:57:52Z</time></trkpt><trkpt lat="51.7191410344" lon="-2.2050669137"><ele>170.77</ele><time>2014-08-27T10:58:19Z</time></trkpt><trkpt lat="51.7189594824" lon="-2.2051053867"><ele>170.77</ele><time>2014-08-27T10:58:35Z</time></trkpt><trkpt lat="51.7188438959" lon="-2.2051136848"><ele>171.25</ele><time>2014-08-27T10:58:49Z</time></trkpt><trkpt lat="51.7188259587" lon="-2.2051223181"><ele>171.73</ele><time>2014-08-27T10:58:51Z</time></trkpt><trkpt lat="51.7187400442" lon="-2.2051467933"><ele>172.69</ele><time>2014-08-27T10:59:00Z</time></trkpt><trkpt lat="51.7185718194" lon="-2.2051479667"><ele>171.25</ele><time>2014-08-27T10:59:18Z</time></trkpt><trkpt lat="51.7184154131" lon="-2.2051693406"><ele>170.77</ele><time>2014-08-27T10:59:33Z</time></trkpt><trkpt lat="51.7183442507" lon="-2.2052064724"><ele>169.81</ele><time>2014-08-27T10:59:39Z</time></trkpt><trkpt lat="51.7182071228" lon="-2.2052883636"><ele>169.81</ele><time>2014-08-27T10:59:53Z</time></trkpt><trkpt lat="51.7181466054" lon="-2.2052555066"><ele>169.81</ele><time>2014-08-27T11:00:09Z</time></trkpt><trkpt lat="51.7181145865" lon="-2.2052798141"><ele>169.81</ele><time>2014-08-27T11:00:33Z</time></trkpt><trkpt lat="51.7180576734" lon="-2.2053415049"><ele>169.33</ele><time>2014-08-27T11:00:37Z</time></trkpt><trkpt lat="51.7178933881" lon="-2.2054634616"><ele>168.37</ele><time>2014-08-27T11:00:50Z</time></trkpt><trkpt lat="51.7177259177" lon="-2.2055724263"><ele>168.85</ele><time>2014-08-27T11:01:05Z</time></trkpt><trkpt lat="51.7176063918" lon="-2.2057772800"><ele>169.81</ele><time>2014-08-27T11:01:22Z</time></trkpt><trkpt lat="51.7175160348" lon="-2.2059402242"><ele>169.81</ele><time>2014-08-27T11:01:42Z</time></trkpt><trkpt lat="51.7175085749" lon="-2.2062613349"><ele>168.85</ele><time>2014-08-27T11:01:57Z</time></trkpt><trkpt lat="51.7174504884" lon="-2.2065339983"><ele>168.37</ele><time>2014-08-27T11:02:22Z</time></trkpt><trkpt lat="51.7173503246" lon="-2.2066821903"><ele>168.85</ele><time>2014-08-27T11:02:43Z</time></trkpt><trkpt lat="51.7173270229" lon="-2.2067749780"><ele>168.85</ele><time>2014-08-27T11:03:01Z</time></trkpt><trkpt lat="51.7172284517" lon="-2.2070039716"><ele>168.37</ele><time>2014-08-27T11:03:18Z</time></trkpt><trkpt lat="51.7171461415" lon="-2.2071422730"><ele>168.37</ele><time>2014-08-27T11:03:36Z</time></trkpt><trkpt lat="51.7171089258" lon="-2.2071179654"><ele>168.37</ele><time>2014-08-27T11:03:52Z</time></trkpt><trkpt lat="51.7170924973" lon="-2.2071203124"><ele>168.85</ele><time>2014-08-27T11:04:14Z</time></trkpt><trkpt lat="51.7170780804" lon="-2.2071346454"><ele>170.29</ele><time>2014-08-27T11:04:16Z</time></trkpt><trkpt lat="51.7169444729" lon="-2.2071079910"><ele>171.73</ele><time>2014-08-27T11:04:31Z</time></trkpt><trkpt lat="51.7168536130" lon="-2.2071100026"><ele>172.21</ele><time>2014-08-27T11:04:44Z</time></trkpt><trkpt lat="51.7168148886" lon="-2.2071343102"><ele>172.21</ele><time>2014-08-27T11:04:49Z</time></trkpt><trkpt lat="51.7166356836" lon="-2.2072076518"><ele>174.14</ele><time>2014-08-27T11:05:03Z</time></trkpt><trkpt lat="51.7165983841" lon="-2.2072390001"><ele>174.62</ele><time>2014-08-27T11:05:08Z</time></trkpt><trkpt lat="51.7164823785" lon="-2.2073182929"><ele>177.02</ele><time>2014-08-27T11:05:23Z</time></trkpt><trkpt lat="51.7163874954" lon="-2.2074622102"><ele>177.50</ele><time>2014-08-27T11:05:41Z</time></trkpt><trkpt lat="51.7162815481" lon="-2.2077018488"><ele>179.42</ele><time>2014-08-27T11:05:56Z</time></trkpt><trkpt lat="51.7162740044" lon="-2.2077461891"><ele>179.90</ele><time>2014-08-27T11:05:58Z</time></trkpt><trkpt lat="51.7161854915" lon="-2.2079735063"><ele>181.83</ele><time>2014-08-27T11:06:10Z</time></trkpt><trkpt lat="51.7161610164" lon="-2.2080271505"><ele>181.83</ele><time>2014-08-27T11:06:13Z</time></trkpt><trkpt lat="51.7160708271" lon="-2.2081897594"><ele>182.31</ele><time>2014-08-27T11:06:25Z</time></trkpt><trkpt lat="51.7160446756" lon="-2.2082323395"><ele>184.23</ele><time>2014-08-27T11:06:28Z</time></trkpt><trkpt lat="51.7159911152" lon="-2.2083687969"><ele>184.71</ele><time>2014-08-27T11:06:41Z</time></trkpt><trkpt lat="51.7159798834" lon="-2.2084060963"><ele>183.75</ele><time>2014-08-27T11:06:44Z</time></trkpt><trkpt lat="51.7159328610" lon="-2.2084500175"><ele>185.67</ele><time>2014-08-27T11:07:02Z</time></trkpt><trkpt lat="51.7159175221" lon="-2.2084157355"><ele>186.15</ele><time>2014-08-27T11:07:06Z</time></trkpt><trkpt lat="51.7157551646" lon="-2.2086010594"><ele>189.04</ele><time>2014-08-27T11:07:25Z</time></trkpt><trkpt lat="51.7157420050" lon="-2.2086395323"><ele>189.04</ele><time>2014-08-27T11:07:27Z</time></trkpt><trkpt lat="51.7156955693" lon="-2.2088242695"><ele>192.88</ele><time>2014-08-27T11:07:35Z</time></trkpt><trkpt lat="51.7157083936" lon="-2.2089474835"><ele>193.36</ele><time>2014-08-27T11:07:44Z</time></trkpt><trkpt lat="51.7157301866" lon="-2.2091854457"><ele>195.28</ele><time>2014-08-27T11:08:00Z</time></trkpt><trkpt lat="51.7157676537" lon="-2.2093424387"><ele>197.21</ele><time>2014-08-27T11:08:12Z</time></trkpt><trkpt lat="51.7157788854" lon="-2.2093561012"><ele>196.73</ele><time>2014-08-27T11:08:14Z</time></trkpt><trkpt lat="51.7158005107" lon="-2.2093700152"><ele>195.77</ele><time>2014-08-27T11:08:16Z</time></trkpt><trkpt lat="51.7158237286" lon="-2.2093938198"><ele>196.25</ele><time>2014-08-27T11:08:19Z</time></trkpt><trkpt lat="51.7159631196" lon="-2.2094677482"><ele>197.21</ele><time>2014-08-27T11:08:34Z</time></trkpt><trkpt lat="51.7160887644" lon="-2.2095217276"><ele>198.65</ele><time>2014-08-27T11:08:48Z</time></trkpt><trkpt lat="51.7161030136" lon="-2.2095276788"><ele>197.69</ele><time>2014-08-27T11:08:50Z</time></trkpt><trkpt lat="51.7161927000" lon="-2.2095230687"><ele>199.13</ele><time>2014-08-27T11:09:01Z</time></trkpt><trkpt lat="51.7162647843" lon="-2.2095017787"><ele>200.57</ele><time>2014-08-27T11:09:08Z</time></trkpt><trkpt lat="51.7163957097" lon="-2.2095553391"><ele>200.09</ele><time>2014-08-27T11:09:21Z</time></trkpt><trkpt lat="51.7165480088" lon="-2.2096373979"><ele>199.13</ele><time>2014-08-27T11:09:37Z</time></trkpt><trkpt lat="51.7166561354" lon="-2.2097093146"><ele>198.17</ele><time>2014-08-27T11:09:53Z</time></trkpt><trkpt lat="51.7167150602" lon="-2.2097031120"><ele>197.69</ele><time>2014-08-27T11:09:57Z</time></trkpt><trkpt lat="51.7168412916" lon="-2.2097126674"><ele>197.69</ele><time>2014-08-27T11:10:10Z</time></trkpt><trkpt lat="51.7168610729" lon="-2.2097280901"><ele>197.21</ele><time>2014-08-27T11:10:12Z</time></trkpt><trkpt lat="51.7169730552" lon="-2.2097461112"><ele>195.77</ele><time>2014-08-27T11:10:23Z</time></trkpt><trkpt lat="51.7170624062" lon="-2.2097485419"><ele>197.21</ele><time>2014-08-27T11:10:32Z</time></trkpt><trkpt lat="51.7172282841" lon="-2.2097517271"><ele>196.73</ele><time>2014-08-27T11:10:47Z</time></trkpt><trkpt lat="51.7173881270" lon="-2.2098119091"><ele>198.17</ele><time>2014-08-27T11:11:03Z</time></trkpt><trkpt lat="51.7174584512" lon="-2.2098442633"><ele>197.69</ele><time>2014-08-27T11:11:11Z</time></trkpt><trkpt lat="51.7175786477" lon="-2.2099057026"><ele>197.69</ele><time>2014-08-27T11:11:24Z</time></trkpt><trkpt lat="51.7176063079" lon="-2.2099186946"><ele>199.61</ele><time>2014-08-27T11:11:27Z</time></trkpt><trkpt lat="51.7176187132" lon="-2.2099181078"><ele>200.09</ele><time>2014-08-27T11:11:28Z</time></trkpt><trkpt lat="51.7176374048" lon="-2.2099216282"><ele>198.65</ele><time>2014-08-27T11:11:30Z</time></trkpt><trkpt lat="51.7176721897" lon="-2.2099433374"><ele>198.17</ele><time>2014-08-27T11:11:34Z</time></trkpt><trkpt lat="51.7177251633" lon="-2.2100010887"><ele>201.53</ele><time>2014-08-27T11:11:41Z</time></trkpt><trkpt lat="51.7178271711" lon="-2.2100584209"><ele>201.53</ele><time>2014-08-27T11:11:52Z</time></trkpt><trkpt lat="51.7179505527" lon="-2.2101125680"><ele>203.94</ele><time>2014-08-27T11:12:07Z</time></trkpt><trkpt lat="51.7180233914" lon="-2.2101129871"><ele>202.49</ele><time>2014-08-27T11:12:14Z</time></trkpt><trkpt lat="51.7180611938" lon="-2.2101269010"><ele>205.86</ele><time>2014-08-27T11:12:18Z</time></trkpt><trkpt lat="51.7180719227" lon="-2.2101269010"><ele>202.49</ele><time>2014-08-27T11:12:19Z</time></trkpt><trkpt lat="51.7180787958" lon="-2.2101286612"><ele>199.13</ele><time>2014-08-27T11:12:20Z</time></trkpt><trkpt lat="51.7180837411" lon="-2.2101297509"><ele>203.94</ele><time>2014-08-27T11:12:21Z</time></trkpt><trkpt lat="51.7180997506" lon="-2.2101260629"><ele>206.82</ele><time>2014-08-27T11:12:23Z</time></trkpt><trkpt lat="51.7181058694" lon="-2.2101293318"><ele>203.94</ele><time>2014-08-27T11:12:24Z</time></trkpt><trkpt lat="51.7181435879" lon="-2.2101439163"><ele>204.90</ele><time>2014-08-27T11:12:29Z</time></trkpt><trkpt lat="51.7182931211" lon="-2.2101675533"><ele>205.38</ele><time>2014-08-27T11:12:44Z</time></trkpt><trkpt lat="51.7184694763" lon="-2.2102364525"><ele>206.82</ele><time>2014-08-27T11:13:02Z</time></trkpt><trkpt lat="51.7185350228" lon="-2.2102530487"><ele>210.19</ele><time>2014-08-27T11:13:08Z</time></trkpt><trkpt lat="51.7185428180" lon="-2.2102538869"><ele>207.30</ele><time>2014-08-27T11:13:09Z</time></trkpt><trkpt lat="51.7186147347" lon="-2.2102875821"><ele>207.30</ele><time>2014-08-27T11:13:17Z</time></trkpt><trkpt lat="51.7186799459" lon="-2.2103197686"><ele>207.78</ele><time>2014-08-27T11:13:23Z</time></trkpt><trkpt lat="51.7187912576" lon="-2.2103710659"><ele>208.26</ele><time>2014-08-27T11:13:35Z</time></trkpt><trkpt lat="51.7188327480" lon="-2.2104054317"><ele>208.26</ele><time>2014-08-27T11:13:40Z</time></trkpt><trkpt lat="51.7188651860" lon="-2.2104301583"><ele>208.74</ele><time>2014-08-27T11:13:43Z</time></trkpt><trkpt lat="51.7189833708" lon="-2.2105175816"><ele>208.26</ele><time>2014-08-27T11:13:56Z</time></trkpt><trkpt lat="51.7191115301" lon="-2.2106198408"><ele>208.74</ele><time>2014-08-27T11:14:10Z</time></trkpt><trkpt lat="51.7191295512" lon="-2.2106348444"><ele>208.74</ele><time>2014-08-27T11:14:12Z</time></trkpt><trkpt lat="51.7192220036" lon="-2.2107111197"><ele>207.78</ele><time>2014-08-27T11:14:22Z</time></trkpt><trkpt lat="51.7192522623" lon="-2.2107352596"><ele>208.74</ele><time>2014-08-27T11:14:25Z</time></trkpt><trkpt lat="51.7193256039" lon="-2.2108027339"><ele>209.22</ele><time>2014-08-27T11:14:33Z</time></trkpt><trkpt lat="51.7193355784" lon="-2.2108103614"><ele>207.78</ele><time>2014-08-27T11:14:35Z</time></trkpt><trkpt lat="51.7194001190" lon="-2.2108552046"><ele>207.78</ele><time>2014-08-27T11:14:40Z</time></trkpt><trkpt lat="51.7194399331" lon="-2.2108811885"><ele>207.30</ele><time>2014-08-27T11:14:43Z</time></trkpt><trkpt lat="51.7195401806" lon="-2.2109099384"><ele>205.86</ele><time>2014-08-27T11:14:52Z</time></trkpt><trkpt lat="51.7196290288" lon="-2.2109561227"><ele>206.34</ele><time>2014-08-27T11:15:05Z</time></trkpt><trkpt lat="51.7197193019" lon="-2.2110448871"><ele>204.90</ele><time>2014-08-27T11:15:20Z</time></trkpt><trkpt lat="51.7198825814" lon="-2.2111748066"><ele>204.90</ele><time>2014-08-27T11:15:36Z</time></trkpt><trkpt lat="51.7199886963" lon="-2.2111766506"><ele>203.46</ele><time>2014-08-27T11:15:52Z</time></trkpt><trkpt lat="51.7201829050" lon="-2.2112767305"><ele>203.94</ele><time>2014-08-27T11:16:09Z</time></trkpt><trkpt lat="51.7202029377" lon="-2.2112765629"><ele>203.46</ele><time>2014-08-27T11:16:11Z</time></trkpt><trkpt lat="51.7203326058" lon="-2.2113153711"><ele>202.01</ele><time>2014-08-27T11:16:23Z</time></trkpt><trkpt lat="51.7204051092" lon="-2.2113417741"><ele>202.49</ele><time>2014-08-27T11:16:30Z</time></trkpt><trkpt lat="51.7205455899" lon="-2.2114187200"><ele>202.49</ele><time>2014-08-27T11:16:44Z</time></trkpt><trkpt lat="51.7206776887" lon="-2.2114996891"><ele>201.05</ele><time>2014-08-27T11:16:58Z</time></trkpt><trkpt lat="51.7208122183" lon="-2.2116833366"><ele>200.57</ele><time>2014-08-27T11:17:14Z</time></trkpt><trkpt lat="51.7209389526" lon="-2.2118660621"><ele>199.61</ele><time>2014-08-27T11:17:31Z</time></trkpt><trkpt lat="51.7210322432" lon="-2.2119647171"><ele>199.13</ele><time>2014-08-27T11:17:41Z</time></trkpt><trkpt lat="51.7211398669" lon="-2.2120280843"><ele>198.17</ele><time>2014-08-27T11:17:51Z</time></trkpt><trkpt lat="51.7212697025" lon="-2.2121029347"><ele>196.73</ele><time>2014-08-27T11:18:04Z</time></trkpt><trkpt lat="51.7213753145" lon="-2.2122071218"><ele>195.28</ele><time>2014-08-27T11:18:17Z</time></trkpt><trkpt lat="51.7214522604" lon="-2.2122492827"><ele>194.32</ele><time>2014-08-27T11:18:25Z</time></trkpt><trkpt lat="51.7215786595" lon="-2.2123615164"><ele>192.88</ele><time>2014-08-27T11:18:38Z</time></trkpt><trkpt lat="51.7217336409" lon="-2.2124828864"><ele>193.36</ele><time>2014-08-27T11:18:54Z</time></trkpt><trkpt lat="51.7217763048" lon="-2.2125457507"><ele>192.40</ele><time>2014-08-27T11:19:10Z</time></trkpt><trkpt lat="51.7217739578" lon="-2.2125511151"><ele>190.48</ele><time>2014-08-27T11:19:17Z</time></trkpt><trkpt lat="51.7217647377" lon="-2.2127591539"><ele>190.48</ele><time>2014-08-27T11:19:28Z</time></trkpt><trkpt lat="51.7217478901" lon="-2.2129465733"><ele>189.04</ele><time>2014-08-27T11:19:39Z</time></trkpt><trkpt lat="51.7217542604" lon="-2.2130640037"><ele>188.56</ele><time>2014-08-27T11:19:45Z</time></trkpt><trkpt lat="51.7217464652" lon="-2.2131154686"><ele>189.04</ele><time>2014-08-27T11:19:47Z</time></trkpt><trkpt lat="51.7217356525" lon="-2.2132873815"><ele>188.08</ele><time>2014-08-27T11:19:55Z</time></trkpt><trkpt lat="51.7217513267" lon="-2.2133390140"><ele>188.08</ele><time>2014-08-27T11:19:58Z</time></trkpt><trkpt lat="51.7217790708" lon="-2.2135475557"><ele>187.59</ele><time>2014-08-27T11:20:12Z</time></trkpt><trkpt lat="51.7218769714" lon="-2.2136920597"><ele>187.11</ele><time>2014-08-27T11:20:25Z</time></trkpt><trkpt lat="51.7218935676" lon="-2.2137017827"><ele>187.59</ele><time>2014-08-27T11:20:38Z</time></trkpt></trkseg></trk></gpx>